Time;durP1;ratioP1;P1;durP2;ratioP2;P2;SDS_P1;SDS_P2;PMS_P1;PMS_P2;Temp;Humidity;BMP_temperature;BMP_pressure;BME280_temperature;BME280_humidity;BME280_pressure;Samples;Min_cycle;Max_cycle;Signal;HPM_P1;HPM_P2
2024/01/15 00:00:50;;;;;;;67.75;61.65;;;;;;;;;;4099882;29;20135;-65
2024/01/15 00:02:52;;;;;;;66.77;60.83;;;;;;;;;;4099860;29;20523;-64
2024/01/15 00:04:53;;;;;;;67.88;61.88;;;;;;;;;;4099189;29;20579;-64
2024/01/15 00:06:55;;;;;;;68.27;62.50;;;;;;;;;;4099206;29;20047;-65
2024/01/15 00:08:58;;;;;;;69.00;63.17;;;;;;;;;;4099690;29;20511;-65
2024/01/15 00:10:59;;;;;;;;;;;;;;;;;;4100364;29;20067;-64
2024/01/15 00:13:01;;;;;;;70.38;63.80;;;;;;;;;;4099662;29;19926;-64
2024/01/15 00:15:03;;;;;;;68.85;62.35;;;;;;;;;;4099962;29;20134;-65
2024/01/15 00:17:04;;;;;;;63.78;58.42;;;;;;;;;;4100024;29;20050;-64
2024/01/15 00:19:06;;;;;;;59.72;54.80;;;;;;;;;;4099911;29;20099;-64
2024/01/15 00:21:08;;;;;;;62.20;56.90;;;;;;;;;;4099787;29;20039;-64
2024/01/15 00:23:09;;;;;;;58.85;54.28;;;;;;;;;;4099658;29;20039;-65
2024/01/15 00:25:11;;;;;;;63.00;57.17;;;;;;;;;;4099686;29;20487;-64
2024/01/15 00:27:12;;;;;;;60.95;55.63;;;;;;;;;;4099654;29;20094;-65
2024/01/15 00:29:14;;;;;;;66.80;61.08;;;;;;;;;;4099609;29;20118;-64
2024/01/15 00:31:16;;;;;;;64.10;58.67;;;;;;;;;;4099618;29;20047;-64
2024/01/15 00:33:18;;;;;;;65.07;59.58;;;;;;;;;;4105373;28;20031;-65
2024/01/15 00:35:19;;;;;;;64.35;58.58;;;;;;;;;;4115621;28;20360;-65
2024/01/15 00:37:21;;;;;;;64.22;58.70;;;;;;;;;;4111446;28;20047;-65
2024/01/15 00:39:23;;;;;;;67.88;62.40;;;;;;;;;;4099423;29;20126;-64
2024/01/15 00:41:27;;;;;;;66.80;61.10;;;;;;;;;;4099359;29;20098;-64
2024/01/15 00:43:29;;;;;;;64.07;58.40;;;;;;;;;;4099315;29;20431;-64
2024/01/15 00:45:31;;;;;;;64.38;59.15;;;;;;;;;;4099689;29;20126;-65
2024/01/15 00:47:32;;;;;;;65.93;59.55;;;;;;;;;;4099445;29;20039;-65
2024/01/15 00:49:34;;;;;;;64.53;58.63;;;;;;;;;;4099133;29;20032;-64
2024/01/15 00:51:36;;;;;;;66.47;60.30;;;;;;;;;;4099396;29;20084;-65
2024/01/15 00:53:37;;;;;;;63.63;58.63;;;;;;;;;;4099444;29;20035;-65
2024/01/15 00:55:39;;;;;;;64.63;59.15;;;;;;;;;;4099636;29;20455;-64
2024/01/15 00:57:46;;;;;;;65.63;60.00;;;;;;;;;;4099656;29;20043;-65
2024/01/15 00:59:48;;;;;;;62.00;57.10;;;;;;;;;;4099597;29;20146;-64
2024/01/15 01:01:50;;;;;;;63.63;58.25;;;;;;;;;;4099116;29;20075;-65
2024/01/15 01:03:51;;;;;;;61.85;56.58;;;;;;;;;;4098933;29;20149;-65
2024/01/15 01:05:53;;;;;;;58.03;53.33;;;;;;;;;;4098870;29;20423;-59
2024/01/15 01:07:55;;;;;;;61.40;56.40;;;;;;;;;;4097779;29;20070;-60
2024/01/15 01:09:56;;;;;;;57.65;53.13;;;;;;;;;;4064913;29;20816;-59
2024/01/15 01:11:58;;;;;;;58.33;54.00;;;;;;;;;;4097672;29;20131;-59
2024/01/15 01:14:01;;;;;;;58.90;54.40;;;;;;;;;;4097750;29;20552;-60
2024/01/15 01:16:03;;;;;;;53.72;49.55;;;;;;;;;;4098308;29;20113;-59
2024/01/15 01:18:05;;;;;;;58.20;53.50;;;;;;;;;;4098333;29;20111;-59
2024/01/15 01:20:09;;;;;;;55.78;51.60;;;;;;;;;;4098227;29;20047;-59
2024/01/15 01:22:11;;;;;;;56.33;52.22;;;;;;;;;;4098756;29;20043;-59
2024/01/15 01:24:12;;;;;;;54.05;50.05;;;;;;;;;;4099317;29;20040;-59
2024/01/15 01:26:17;;;;;;;55.47;50.77;;;;;;;;;;4099280;29;20043;-60
2024/01/15 01:28:19;;;;;;;59.05;54.05;;;;;;;;;;4099302;29;20158;-60
2024/01/15 01:30:21;;;;;;;58.93;54.30;;;;;;;;;;4099079;29;20047;-59
2024/01/15 01:32:22;;;;;;;59.53;54.67;;;;;;;;;;4099148;29;20078;-59
2024/01/15 01:34:24;;;;;;;60.97;56.47;;;;;;;;;;4086142;29;20054;-60
2024/01/15 01:36:26;;;;;;;54.23;50.13;;;;;;;;;;4099338;29;20295;-59
2024/01/15 01:38:28;;;;;;;50.88;47.03;;;;;;;;;;4099020;29;20095;-59
2024/01/15 01:40:29;;;;;;;50.00;46.58;;;;;;;;;;4098794;29;20035;-59
2024/01/15 01:42:31;;;;;;;50.63;47.05;;;;;;;;;;4099043;29;20051;-60
2024/01/15 01:44:33;;;;;;;50.50;47.10;;;;;;;;;;4098994;29;20039;-59
2024/01/15 01:46:39;;;;;;;51.72;48.28;;;;;;;;;;4098943;29;20571;-60
2024/01/15 01:48:40;;;;;;;46.05;43.05;;;;;;;;;;4099198;29;20126;-60
2024/01/15 01:50:42;;;;;;;44.43;41.63;;;;;;;;;;4099211;29;20055;-60
2024/01/15 01:52:44;;;;;;;50.25;46.47;;;;;;;;;;4098967;29;20319;-59
2024/01/15 01:54:45;;;;;;;53.13;49.55;;;;;;;;;;4098933;29;20103;-60
2024/01/15 01:56:48;;;;;;;56.50;52.43;;;;;;;;;;4099170;29;20052;-59
2024/01/15 01:58:49;;;;;;;;;;;;;;;;;;4098067;29;20377;-59
2024/01/15 02:00:51;;;;;;;65.75;60.47;;;;;;;;;;4099009;28;19978;-59
2024/01/15 02:02:53;;;;;;;64.53;59.30;;;;;;;;;;4091034;29;20548;-59
2024/01/15 02:04:54;;;;;;;60.07;54.97;;;;;;;;;;4085785;29;20356;-59
2024/01/15 02:06:56;;;;;;;69.13;62.27;;;;;;;;;;4085619;29;20044;-59
2024/01/15 02:08:58;;;;;;;65.20;59.65;;;;;;;;;;4093380;29;20389;-59
2024/01/15 02:11:00;;;;;;;62.85;57.80;;;;;;;;;;4101604;29;20047;-60
2024/01/15 02:13:02;;;;;;;60.13;55.50;;;;;;;;;;4101602;29;20452;-59
2024/01/15 02:15:03;;;;;;;60.63;55.45;;;;;;;;;;4101727;29;20043;-59
2024/01/15 02:17:06;;;;;;;58.42;53.85;;;;;;;;;;4101389;29;20061;-59
2024/01/15 02:19:07;;;;;;;58.85;54.33;;;;;;;;;;4101711;29;20043;-60
2024/01/15 02:21:10;;;;;;;53.55;49.35;;;;;;;;;;4101383;29;20420;-59
2024/01/15 02:23:13;;;;;;;57.38;53.13;;;;;;;;;;4101514;29;20039;-60
2024/01/15 02:25:14;;;;;;;58.80;54.30;;;;;;;;;;4101531;29;20083;-59
2024/01/15 02:27:16;;;;;;;58.75;53.85;;;;;;;;;;4084542;29;20528;-60
2024/01/15 02:29:18;;;;;;;61.13;55.80;;;;;;;;;;4101551;29;20126;-60
2024/01/15 02:31:20;;;;;;;62.47;57.27;;;;;;;;;;4101410;28;20099;-59
2024/01/15 02:33:21;;;;;;;60.65;56.05;;;;;;;;;;4102499;28;20349;-60
2024/01/15 02:35:23;;;;;;;59.83;55.08;;;;;;;;;;4101413;29;20058;-59
2024/01/15 02:37:25;;;;;;;59.57;54.77;;;;;;;;;;4101170;29;20499;-60
2024/01/15 02:39:28;;;;;;;51.13;47.25;;;;;;;;;;4101197;29;20058;-59
2024/01/15 02:41:30;;;;;;;54.53;50.53;;;;;;;;;;4100870;29;20036;-61
2024/01/15 02:43:32;;;;;;;51.78;47.55;;;;;;;;;;4101253;29;20479;-60
2024/01/15 02:45:33;;;;;;;52.58;48.80;;;;;;;;;;4101109;29;20090;-60
2024/01/15 02:47:35;;;;;;;50.72;47.13;;;;;;;;;;4101154;29;20498;-59
2024/01/15 02:49:37;;;;;;;53.47;49.75;;;;;;;;;;4101042;29;20041;-59
2024/01/15 02:51:38;;;;;;;46.35;43.20;;;;;;;;;;4101018;29;20103;-60
2024/01/15 02:53:40;;;;;;;43.97;40.78;;;;;;;;;;4101000;29;20442;-60
2024/01/15 02:55:42;;;;;;;49.78;46.28;;;;;;;;;;4100937;29;20503;-60
2024/01/15 02:57:43;;;;;;;49.30;46.10;;;;;;;;;;4101254;29;20110;-59
2024/01/15 02:59:45;;;;;;;51.80;48.30;;;;;;;;;;4083993;29;20417;-59
2024/01/15 03:01:46;;;;;;;47.33;44.30;;;;;;;;;;4100465;29;20790;-60
2024/01/15 03:03:48;;;;;;;48.42;45.22;;;;;;;;;;4100440;29;20063;-59
2024/01/15 03:05:50;;;;;;;51.20;47.47;;;;;;;;;;4100920;29;20086;-60
2024/01/15 03:07:52;;;;;;;52.83;48.92;;;;;;;;;;4100852;29;20514;-60
2024/01/15 03:09:53;;;;;;;55.42;51.05;;;;;;;;;;4100450;29;20579;-60
2024/01/15 03:11:55;;;;;;;52.53;48.57;;;;;;;;;;4100877;29;20051;-60
2024/01/15 03:13:56;;;;;;;57.10;52.28;;;;;;;;;;4099701;28;20078;-59
2024/01/15 03:15:58;;;;;;;57.83;53.10;;;;;;;;;;4100739;29;20512;-65
2024/01/15 03:18:00;;;;;;;62.20;56.90;;;;;;;;;;4100763;29;20070;-65
2024/01/15 03:20:03;;;;;;;57.88;53.20;;;;;;;;;;4100626;29;20044;-65
2024/01/15 03:22:04;;;;;;;57.35;52.60;;;;;;;;;;4100651;29;20039;-64
2024/01/15 03:24:06;;;;;;;58.17;53.10;;;;;;;;;;4100566;29;20558;-65
2024/01/15 03:26:08;;;;;;;59.43;54.63;;;;;;;;;;4100489;28;20083;-60
2024/01/15 03:28:09;;;;;;;60.55;55.67;;;;;;;;;;4100436;29;20378;-59
2024/01/15 03:30:11;;;;;;;59.20;54.42;;;;;;;;;;4100326;29;20039;-60
2024/01/15 03:32:13;;;;;;;56.63;52.47;;;;;;;;;;4100187;29;20553;-59
2024/01/15 03:34:14;;;;;;;56.05;51.50;;;;;;;;;;4100437;29;20040;-60
2024/01/15 03:36:16;;;;;;;56.50;51.63;;;;;;;;;;4100328;29;20091;-59
2024/01/15 03:38:18;;;;;;;55.97;51.25;;;;;;;;;;4100161;29;20464;-59
2024/01/15 03:40:19;;;;;;;48.67;45.10;;;;;;;;;;4100208;29;20126;-59
2024/01/15 03:42:24;;;;;;;45.38;42.58;;;;;;;;;;4100095;29;20095;-60
2024/01/15 03:44:25;;;;;;;42.63;40.07;;;;;;;;;;4100376;29;20047;-60
2024/01/15 03:46:27;;;;;;;44.65;41.88;;;;;;;;;;4100315;29;20301;-59
2024/01/15 03:48:29;;;;;;;41.80;39.38;;;;;;;;;;4100263;29;20150;-59
2024/01/15 03:50:30;;;;;;;43.50;40.60;;;;;;;;;;4100080;29;20049;-60
2024/01/15 03:52:32;;;;;;;53.75;50.25;;;;;;;;;;4100005;29;20397;-60
2024/01/15 03:54:33;;;;;;;54.15;49.90;;;;;;;;;;4100152;29;20071;-61
2024/01/15 03:56:35;;;;;;;61.13;56.23;;;;;;;;;;4100046;29;20035;-60
2024/01/15 03:58:37;;;;;;;56.38;51.67;;;;;;;;;;4100164;29;20067;-60
2024/01/15 04:00:38;;;;;;;60.63;55.58;;;;;;;;;;4099870;29;20051;-60
2024/01/15 04:02:40;;;;;;;59.95;54.67;;;;;;;;;;4099712;28;20038;-62
2024/01/15 04:04:43;;;;;;;62.92;57.95;;;;;;;;;;4085183;29;20099;-61
2024/01/15 04:06:45;;;;;;;67.15;61.35;;;;;;;;;;4083984;29;20404;-60
2024/01/15 04:08:47;;;;;;;60.65;55.72;;;;;;;;;;4083835;29;20106;-60
2024/01/15 04:10:48;;;;;;;61.15;55.92;;;;;;;;;;4084310;29;20103;-60
2024/01/15 04:12:50;;;;;;;60.67;56.20;;;;;;;;;;4084046;29;20079;-60
2024/01/15 04:14:51;;;;;;;57.53;53.07;;;;;;;;;;4084032;29;20069;-60
2024/01/15 04:16:53;;;;;;;58.53;53.55;;;;;;;;;;4083970;29;20527;-60
2024/01/15 04:18:55;;;;;;;57.03;52.40;;;;;;;;;;4083947;29;20126;-60
2024/01/15 04:20:56;;;;;;;54.08;50.15;;;;;;;;;;4083804;29;20047;-60
2024/01/15 04:22:58;;;;;;;56.73;52.27;;;;;;;;;;4083940;29;20047;-60
2024/01/15 04:24:59;;;;;;;53.15;48.67;;;;;;;;;;4083734;29;20118;-61
2024/01/15 04:27:01;;;;;;;56.93;52.63;;;;;;;;;;4083834;29;20580;-60
2024/01/15 04:29:03;;;;;;;56.47;51.97;;;;;;;;;;4083868;29;20479;-60
2024/01/15 04:31:05;;;;;;;59.90;55.00;;;;;;;;;;4084051;29;20166;-61
2024/01/15 04:33:06;;;;;;;61.55;56.50;;;;;;;;;;4083782;29;20099;-62
2024/01/15 04:35:08;;;;;;;58.20;53.80;;;;;;;;;;4083679;29;20134;-60
2024/01/15 04:37:10;;;;;;;57.72;53.58;;;;;;;;;;4083902;29;20131;-65
2024/01/15 04:39:11;;;;;;;54.10;50.13;;;;;;;;;;4083770;29;20412;-65
2024/01/15 04:41:13;;;;;;;55.08;51.22;;;;;;;;;;4083764;29;20107;-65
2024/01/15 04:43:15;;;;;;;53.13;49.40;;;;;;;;;;4083702;29;20054;-65
2024/01/15 04:45:18;;;;;;;53.80;50.35;;;;;;;;;;4083926;29;20039;-65
2024/01/15 04:47:20;;;;;;;54.60;50.50;;;;;;;;;;4083682;29;20039;-65
2024/01/15 04:49:21;;;;;;;54.20;50.13;;;;;;;;;;4083650;29;20079;-65
2024/01/15 04:51:23;;;;;;;54.67;50.78;;;;;;;;;;4083873;29;20123;-65
2024/01/15 04:53:24;;;;;;;55.83;51.90;;;;;;;;;;4083562;29;20116;-65
2024/01/15 04:55:26;;;;;;;58.13;53.47;;;;;;;;;;4083563;29;20572;-65
2024/01/15 04:57:28;;;;;;;58.45;53.63;;;;;;;;;;4083569;29;20070;-65
2024/01/15 04:59:29;;;;;;;59.15;54.50;;;;;;;;;;4083648;29;20044;-65
2024/01/15 05:01:32;;;;;;;63.75;57.78;;;;;;;;;;4083473;29;20047;-65
2024/01/15 05:03:34;;;;;;;60.05;55.15;;;;;;;;;;4086810;29;20047;-65
2024/01/15 05:05:35;;;;;;;55.57;51.07;;;;;;;;;;4098778;29;20039;-65
2024/01/15 05:07:38;;;;;;;61.55;56.63;;;;;;;;;;4099478;28;20298;-65
2024/01/15 05:09:39;;;;;;;59.03;54.20;;;;;;;;;;4096003;28;20039;-65
2024/01/15 05:11:41;;;;;;;59.50;54.60;;;;;;;;;;4082005;29;20051;-64
2024/01/15 05:13:42;;;;;;;65.43;59.70;;;;;;;;;;4098575;28;20452;-65
2024/01/15 05:15:45;;;;;;;67.25;61.63;;;;;;;;;;4099544;29;20058;-65
2024/01/15 05:17:46;;;;;;;;;;;;;;;;;;4099889;29;20055;-65
2024/01/15 05:19:48;;;;;;;56.88;52.20;;;;;;;;;;4099130;29;19961;-65
2024/01/15 05:21:50;;;;;;;59.20;54.50;;;;;;;;;;4097861;29;20077;-65
2024/01/15 05:23:52;;;;;;;58.83;54.03;;;;;;;;;;4099179;29;20047;-66
2024/01/15 05:25:53;;;;;;;63.28;57.70;;;;;;;;;;4099162;28;20567;-65
2024/01/15 05:27:55;;;;;;;73.73;64.43;;;;;;;;;;4109034;28;20039;-65
2024/01/15 05:29:57;;;;;;;55.55;50.90;;;;;;;;;;4104149;28;20318;-66
2024/01/15 05:31:58;;;;;;;53.90;49.80;;;;;;;;;;4101636;28;20067;-65
2024/01/15 05:34:03;;;;;;;56.47;52.25;;;;;;;;;;4097710;28;20087;-65
2024/01/15 05:36:05;;;;;;;61.88;56.53;;;;;;;;;;4099137;28;20055;-65
2024/01/15 05:38:07;;;;;;;59.63;54.63;;;;;;;;;;4102048;29;20504;-65
2024/01/15 05:40:09;;;;;;;57.58;53.20;;;;;;;;;;4102145;29;20053;-65
2024/01/15 05:42:10;;;;;;;54.40;50.08;;;;;;;;;;4102137;29;20043;-66
2024/01/15 05:44:13;;;;;;;56.78;52.45;;;;;;;;;;4100882;29;20043;-65
2024/01/15 05:46:15;;;;;;;58.90;54.28;;;;;;;;;;4102193;29;20094;-66
2024/01/15 05:48:17;;;;;;;;;;;;;;;;;;4102539;29;20452;-65
2024/01/15 05:50:18;;;;;;;55.90;51.63;;;;;;;;;;4101982;29;20331;-64
2024/01/15 05:52:21;;;;;;;56.73;52.10;;;;;;;;;;4102186;29;20075;-66
2024/01/15 05:54:23;;;;;;;54.42;50.38;;;;;;;;;;4102083;29;20046;-66
2024/01/15 05:56:25;;;;;;;52.90;49.00;;;;;;;;;;4102209;29;20039;-64
2024/01/15 05:58:26;;;;;;;52.43;48.57;;;;;;;;;;4101849;29;20074;-65
2024/01/15 06:00:28;;;;;;;51.20;47.72;;;;;;;;;;4101778;29;20326;-65
2024/01/15 06:02:30;;;;;;;49.50;45.93;;;;;;;;;;4101704;29;20097;-64
2024/01/15 06:04:31;;;;;;;50.60;47.13;;;;;;;;;;4101754;29;20122;-65
2024/01/15 06:06:33;;;;;;;50.07;46.67;;;;;;;;;;4101836;29;20070;-61
2024/01/15 06:08:35;;;;;;;52.73;48.93;;;;;;;;;;4101413;29;20830;-60
2024/01/15 06:10:36;;;;;;;48.25;44.88;;;;;;;;;;4101834;29;20299;-61
2024/01/15 06:12:38;;;;;;;52.43;48.80;;;;;;;;;;4091189;28;20055;-60
2024/01/15 06:14:41;;;;;;;54.23;50.10;;;;;;;;;;4101974;28;20054;-61
2024/01/15 06:16:43;;;;;;;54.42;50.05;;;;;;;;;;4105528;28;20333;-61
2024/01/15 06:18:44;;;;;;;56.85;52.17;;;;;;;;;;4101383;29;20043;-60
2024/01/15 06:20:46;;;;;;;65.40;58.42;;;;;;;;;;4101569;29;20575;-60
2024/01/15 06:22:48;;;;;;;71.77;57.10;;;;;;;;;;4101315;29;20055;-60
2024/01/15 06:24:49;;;;;;;99.90;59.83;;;;;;;;;;4101773;29;20567;-60
2024/01/15 06:26:51;;;;;;;63.07;57.07;;;;;;;;;;4101368;29;20123;-60
2024/01/15 06:28:52;;;;;;;68.20;60.88;;;;;;;;;;4101204;29;20373;-60
2024/01/15 06:30:54;;;;;;;65.88;59.33;;;;;;;;;;4107813;28;20051;-60
2024/01/15 06:32:56;;;;;;;60.35;55.45;;;;;;;;;;4105600;28;20047;-60
2024/01/15 06:34:58;;;;;;;58.65;53.88;;;;;;;;;;4101130;28;20055;-61
2024/01/15 06:36:59;;;;;;;59.38;54.40;;;;;;;;;;4101355;29;20040;-60
2024/01/15 06:39:01;;;;;;;64.20;58.38;;;;;;;;;;4101296;29;20054;-61
2024/01/15 06:41:03;;;;;;;67.30;60.77;;;;;;;;;;4101254;29;20070;-60
2024/01/15 06:43:04;;;;;;;58.57;53.67;;;;;;;;;;4101201;29;20086;-60
2024/01/15 06:45:06;;;;;;;65.10;59.08;;;;;;;;;;4101374;29;20067;-60
2024/01/15 06:47:08;;;;;;;81.80;61.15;;;;;;;;;;4108038;28;20554;-60
2024/01/15 06:49:09;;;;;;;62.10;57.05;;;;;;;;;;4116899;28;20134;-61
2024/01/15 06:51:11;;;;;;;58.23;52.80;;;;;;;;;;4117007;28;20047;-61
2024/01/15 06:53:13;;;;;;;58.33;53.27;;;;;;;;;;4117248;28;20047;-60
2024/01/15 06:55:14;;;;;;;59.78;54.53;;;;;;;;;;4117236;28;20133;-60
2024/01/15 06:57:16;;;;;;;56.10;51.35;;;;;;;;;;4116990;28;20510;-60
2024/01/15 06:59:17;;;;;;;58.67;53.60;;;;;;;;;;4116969;28;20045;-61
2024/01/15 07:01:21;;;;;;;59.78;54.83;;;;;;;;;;4116566;28;20045;-60
2024/01/15 07:03:22;;;;;;;60.65;55.03;;;;;;;;;;4102348;28;20111;-60
2024/01/15 07:05:24;;;;;;;60.70;55.40;;;;;;;;;;4099710;29;20693;-60
2024/01/15 07:07:29;;;;;;;60.47;55.83;;;;;;;;;;4100813;29;20043;-60
2024/01/15 07:09:30;;;;;;;52.08;48.25;;;;;;;;;;4100834;29;20290;-61
2024/01/15 07:11:32;;;;;;;52.93;49.03;;;;;;;;;;4100653;29;20042;-61
2024/01/15 07:13:34;;;;;;;50.22;46.47;;;;;;;;;;4100844;29;20625;-61
2024/01/15 07:15:35;;;;;;;51.05;47.22;;;;;;;;;;4100887;29;20039;-61
2024/01/15 07:17:40;;;;;;;52.13;48.33;;;;;;;;;;4100632;29;20040;-62
2024/01/15 07:19:42;;;;;;;48.53;44.92;;;;;;;;;;4100767;29;20126;-63
2024/01/15 07:21:43;;;;;;;64.07;58.15;;;;;;;;;;4083517;29;20074;-63
2024/01/15 07:23:45;;;;;;;62.07;57.07;;;;;;;;;;4100392;29;20047;-63
2024/01/15 07:25:47;;;;;;;64.38;58.78;;;;;;;;;;4083518;29;20283;-62
2024/01/15 07:27:48;;;;;;;79.83;71.40;;;;;;;;;;4100573;29;20039;-62
2024/01/15 07:29:50;;;;;;;77.13;68.93;;;;;;;;;;4100681;29;20047;-62
2024/01/15 07:31:52;;;;;;;74.28;66.95;;;;;;;;;;4100465;29;20047;-63
2024/01/15 07:33:54;;;;;;;72.43;65.60;;;;;;;;;;4111091;28;20043;-62
2024/01/15 07:35:55;;;;;;;73.53;66.13;;;;;;;;;;4116648;28;20411;-63
2024/01/15 07:37:58;;;;;;;69.70;63.22;;;;;;;;;;4116337;28;20297;-63
2024/01/15 07:40:00;;;;;;;69.20;62.87;;;;;;;;;;4116223;28;20046;-63
2024/01/15 07:42:02;;;;;;;74.30;67.22;;;;;;;;;;4116282;28;20053;-62
2024/01/15 07:44:04;;;;;;;77.72;69.65;;;;;;;;;;4116214;28;20495;-62
2024/01/15 07:46:06;;;;;;;81.47;73.37;;;;;;;;;;4116128;28;20587;-62
2024/01/15 07:48:09;;;;;;;74.20;67.30;;;;;;;;;;4114924;28;20049;-62
2024/01/15 07:50:11;;;;;;;73.10;66.78;;;;;;;;;;4116357;28;20043;-63
2024/01/15 07:52:13;;;;;;;63.80;58.00;;;;;;;;;;4116218;28;20042;-63
2024/01/15 07:54:15;;;;;;;67.85;61.70;;;;;;;;;;4115958;28;20301;-62
2024/01/15 07:56:16;;;;;;;68.28;61.75;;;;;;;;;;4116102;28;20043;-62
2024/01/15 07:58:18;;;;;;;66.00;60.13;;;;;;;;;;4116247;28;20109;-63
2024/01/15 08:00:20;;;;;;;66.05;60.03;;;;;;;;;;4115234;28;20050;-63
2024/01/15 08:02:22;;;;;;;72.85;66.38;;;;;;;;;;4115822;28;20407;-63
2024/01/15 08:04:24;;;;;;;72.20;65.43;;;;;;;;;;4115801;28;20054;-63
2024/01/15 08:06:26;;;;;;;79.85;71.43;;;;;;;;;;4108822;28;20347;-62
2024/01/15 08:08:28;;;;;;;82.40;72.97;;;;;;;;;;4099918;29;20039;-62
2024/01/15 08:10:29;;;;;;;78.18;70.53;;;;;;;;;;4101539;28;20578;-62
2024/01/15 08:12:31;;;;;;;76.70;68.63;;;;;;;;;;4115920;28;20054;-62
2024/01/15 08:14:33;;;;;;;71.15;64.30;;;;;;;;;;4107034;28;20070;-62
2024/01/15 08:16:35;;;;;;;74.95;67.78;;;;;;;;;;4099858;29;20304;-62
2024/01/15 08:18:37;;;;;;;84.00;75.07;;;;;;;;;;4099832;29;20047;-61
2024/01/15 08:20:39;;;;;;;77.00;68.88;;;;;;;;;;4099810;29;20058;-61
2024/01/15 08:22:41;;;;;;;67.95;61.97;;;;;;;;;;4099749;29;20046;-61
2024/01/15 08:24:43;;;;;;;71.25;64.55;;;;;;;;;;4099752;29;20103;-61
2024/01/15 08:26:45;;;;;;;66.22;60.53;;;;;;;;;;4099693;29;20035;-61
2024/01/15 08:28:47;;;;;;;72.97;66.35;;;;;;;;;;4099739;29;20043;-61
2024/01/15 08:30:49;;;;;;;65.57;59.75;;;;;;;;;;4099854;29;20129;-61
2024/01/15 08:32:50;;;;;;;63.00;57.50;;;;;;;;;;4102023;28;20058;-60
2024/01/15 08:34:52;;;;;;;62.10;57.10;;;;;;;;;;4115717;28;20050;-61
2024/01/15 08:36:54;;;;;;;61.63;56.22;;;;;;;;;;4115622;28;20050;-61
2024/01/15 08:38:55;;;;;;;57.72;52.88;;;;;;;;;;4115661;28;20051;-61
2024/01/15 08:41:00;;;;;;;59.03;53.70;;;;;;;;;;4115573;28;20039;-60
2024/01/15 08:43:02;;;;;;;57.47;52.85;;;;;;;;;;4115618;28;20045;-61
2024/01/15 08:45:04;;;;;;;55.97;51.50;;;;;;;;;;4115608;28;20484;-61
2024/01/15 08:47:05;;;;;;;63.53;58.10;;;;;;;;;;4115535;28;20081;-60
2024/01/15 08:49:07;;;;;;;65.78;60.25;;;;;;;;;;4115562;28;20495;-61
2024/01/15 08:51:09;;;;;;;71.20;64.47;;;;;;;;;;4115361;28;20065;-60
2024/01/15 08:53:10;;;;;;;74.50;67.90;;;;;;;;;;4115487;28;20070;-61
2024/01/15 08:55:13;;;;;;;69.47;63.20;;;;;;;;;;4115636;28;20118;-60
2024/01/15 08:57:14;;;;;;;66.78;60.90;;;;;;;;;;4115191;28;20050;-60
2024/01/15 08:59:16;;;;;;;68.00;62.00;;;;;;;;;;4115407;28;20102;-61
2024/01/15 09:01:19;;;;;;;66.60;60.83;;;;;;;;;;4115318;28;20054;-60
2024/01/15 09:03:20;;;;;;;63.25;57.80;;;;;;;;;;4113381;28;20047;-60
2024/01/15 09:05:22;;;;;;;67.70;61.40;;;;;;;;;;4099478;29;20122;-60
2024/01/15 09:07:25;;;;;;;63.10;57.08;;;;;;;;;;4114526;28;20320;-61
2024/01/15 09:09:27;;;;;;;;;;;;;;;;;;4103910;28;20058;-61
2024/01/15 09:11:28;;;;;;;78.65;70.65;;;;;;;;;;4105359;28;20294;-61
2024/01/15 09:13:30;;;;;;;74.72;67.70;;;;;;;;;;4102630;29;20058;-61
2024/01/15 09:15:32;;;;;;;67.95;61.67;;;;;;;;;;4102417;29;20119;-60
2024/01/15 09:17:34;;;;;;;59.30;53.70;;;;;;;;;;4102514;29;20049;-60
2024/01/15 09:19:35;;;;;;;61.83;56.13;;;;;;;;;;4102649;29;20051;-61
2024/01/15 09:21:38;;;;;;;73.35;66.35;;;;;;;;;;4102408;29;20080;-61
2024/01/15 09:23:40;;;;;;;68.13;61.88;;;;;;;;;;4102393;29;20040;-61
2024/01/15 09:25:41;;;;;;;66.72;61.00;;;;;;;;;;4102439;29;20048;-61
2024/01/15 09:27:43;;;;;;;70.93;64.50;;;;;;;;;;4102505;29;20377;-62
2024/01/15 09:29:46;;;;;;;69.43;62.97;;;;;;;;;;4102596;29;20043;-63
2024/01/15 09:31:47;;;;;;;70.35;63.97;;;;;;;;;;4102382;29;20096;-62
2024/01/15 09:33:52;;;;;;;81.40;73.82;;;;;;;;;;4102254;29;20475;-63
2024/01/15 09:35:54;;;;;;;71.45;64.63;;;;;;;;;;4102282;29;20078;-62
2024/01/15 09:37:55;;;;;;;72.47;65.53;;;;;;;;;;4101246;29;20047;-63
2024/01/15 09:39:57;;;;;;;77.85;70.30;;;;;;;;;;4102126;29;20102;-63
2024/01/15 09:41:59;;;;;;;71.65;64.50;;;;;;;;;;4102078;29;20051;-62
2024/01/15 09:44:02;;;;;;;77.40;70.13;;;;;;;;;;4102345;29;20372;-63
2024/01/15 09:46:03;;;;;;;75.80;68.50;;;;;;;;;;4100862;29;20051;-63
2024/01/15 09:48:06;;;;;;;70.97;64.50;;;;;;;;;;4102118;29;20571;-63
2024/01/15 09:50:07;;;;;;;74.40;67.43;;;;;;;;;;4102105;29;20058;-63
2024/01/15 09:52:10;;;;;;;80.13;72.30;;;;;;;;;;4085088;29;20074;-63
2024/01/15 09:54:16;;;;;;;60.55;55.28;;;;;;;;;;4101957;29;20405;-62
2024/01/15 09:56:18;;;;;;;63.97;58.15;;;;;;;;;;4102168;29;20102;-63
2024/01/15 09:58:20;;;;;;;84.47;76.20;;;;;;;;;;4102182;29;20395;-62
2024/01/15 10:00:22;;;;;;;57.00;52.88;;;;;;;;;;4093633;29;20091;-62
2024/01/15 10:02:23;;;;;;;62.80;57.03;;;;;;;;;;4101639;29;20502;-63
2024/01/15 10:04:25;;;;;;;73.85;66.65;;;;;;;;;;4101545;29;20507;-63
2024/01/15 10:06:30;;;;;;;78.07;70.50;;;;;;;;;;4101586;29;20118;-63
2024/01/15 10:08:32;;;;;;;77.68;69.88;;;;;;;;;;4101850;29;20094;-63
2024/01/15 10:10:36;;;;;;;75.05;68.35;;;;;;;;;;4101565;29;20514;-62
2024/01/15 10:12:38;;;;;;;73.20;66.47;;;;;;;;;;4101474;29;20141;-62
2024/01/15 10:14:39;;;;;;;;;;;;;;;;;;4102093;29;20047;-63
2024/01/15 10:16:41;;;;;;;77.50;69.57;;;;;;;;;;4101637;29;19929;-63
2024/01/15 10:18:43;;;;;;;76.25;68.75;;;;;;;;;;4101722;29;20054;-63
2024/01/15 10:20:45;;;;;;;72.90;65.80;;;;;;;;;;4101509;29;20077;-63
2024/01/15 10:22:47;;;;;;;60.58;55.08;;;;;;;;;;4100918;28;20043;-63
2024/01/15 10:24:49;;;;;;;57.92;52.85;;;;;;;;;;4101826;29;20032;-63
2024/01/15 10:26:50;;;;;;;56.83;52.05;;;;;;;;;;4101479;29;20095;-62
2024/01/15 10:28:52;;;;;;;76.00;68.40;;;;;;;;;;4084473;29;20400;-63
2024/01/15 10:30:54;;;;;;;75.30;68.17;;;;;;;;;;4101563;29;20047;-63
2024/01/15 10:33:00;;;;;;;58.45;53.20;;;;;;;;;;4104227;28;20047;-63
2024/01/15 10:35:04;;;;;;;56.85;52.45;;;;;;;;;;4117854;28;20094;-63
2024/01/15 10:37:09;;;;;;;56.80;52.22;;;;;;;;;;4117310;28;20047;-63
2024/01/15 10:39:13;;;;;;;65.68;59.90;;;;;;;;;;4117570;28;20046;-61
2024/01/15 10:41:15;;;;;;;62.58;57.28;;;;;;;;;;4116434;28;20038;-61
2024/01/15 10:43:20;;;;;;;;;;;;;;;;;;4100003;29;20138;-60
2024/01/15 10:45:22;;;;;;;60.80;55.47;;;;;;;;;;4095343;29;19929;-61
2024/01/15 10:47:23;;;;;;;58.95;53.85;;;;;;;;;;4093414;29;20519;-61
2024/01/15 10:49:26;;;;;;;61.37;56.07;;;;;;;;;;4100720;29;20039;-61
2024/01/15 10:51:33;;;;;;;59.00;54.45;;;;;;;;;;4092242;29;20299;-61
2024/01/15 10:53:36;;;;;;;58.83;54.30;;;;;;;;;;4083631;29;20075;-60
2024/01/15 10:55:39;;;;;;;65.78;59.85;;;;;;;;;;4099039;29;20129;-60
2024/01/15 10:57:40;;;;;;;;;;;;;;;;;;4101393;29;20511;-61
2024/01/15 10:59:42;;;;;;;60.03;54.47;;;;;;;;;;4099870;29;20362;-60
2024/01/15 11:01:46;;;;;;;64.55;58.80;;;;;;;;;;4097668;29;20448;-60
2024/01/15 11:03:48;;;;;;;61.85;56.33;;;;;;;;;;4097281;29;20059;-60
2024/01/15 11:05:50;;;;;;;58.08;53.72;;;;;;;;;;4098252;29;20046;-61
2024/01/15 11:07:55;;;;;;;60.88;56.15;;;;;;;;;;4096524;29;20496;-60
2024/01/15 11:09:58;;;;;;;69.38;63.28;;;;;;;;;;4100673;29;20043;-61
2024/01/15 11:12:07;;;;;;;65.32;59.72;;;;;;;;;;4100908;29;20051;-61
2024/01/15 11:14:08;;;;;;;72.57;65.68;;;;;;;;;;4094238;29;20094;-61
2024/01/15 11:16:11;;;;;;;68.97;62.87;;;;;;;;;;4095409;29;20435;-60
2024/01/15 11:18:14;;;;;;;63.90;58.65;;;;;;;;;;4084823;29;20074;-61
2024/01/15 11:20:15;;;;;;;75.10;67.65;;;;;;;;;;4089386;29;20047;-61
2024/01/15 11:22:29;;;;;;;63.63;58.40;;;;;;;;;;4091848;29;20035;-60
2024/01/15 11:24:37;;;;;;;59.08;54.28;;;;;;;;;;4091355;29;20039;-61
2024/01/15 11:26:46;;;;;;;56.03;51.80;;;;;;;;;;4095494;29;20435;-61
2024/01/15 11:28:48;;;;;;;46.85;43.50;;;;;;;;;;4088630;29;20031;-61
2024/01/15 11:30:50;;;;;;;47.22;43.45;;;;;;;;;;4089997;29;20071;-60
2024/01/15 11:32:52;;;;;;;45.00;42.00;;;;;;;;;;4090143;29;20102;-61
2024/01/15 11:34:58;;;;;;;49.97;46.38;;;;;;;;;;4087448;29;20291;-61
2024/01/15 11:37:01;;;;;;;54.60;50.70;;;;;;;;;;4085174;29;20043;-61
2024/01/15 11:39:23;;;;;;;50.83;47.20;;;;;;;;;;4086346;29;20080;-61
2024/01/15 11:41:24;;;;;;;58.17;53.65;;;;;;;;;;4091790;29;20039;-61
2024/01/15 11:43:32;;;;;;;54.17;50.03;;;;;;;;;;4102390;28;20127;-61
2024/01/15 11:45:34;;;;;;;63.40;57.92;;;;;;;;;;4098167;28;20401;-61
2024/01/15 11:47:51;;;;;;;88.32;79.45;;;;;;;;;;4100404;28;20047;-62
2024/01/15 11:50:05;;;;;;;66.57;60.65;;;;;;;;;;4104305;28;20035;-61
2024/01/15 11:52:06;;;;;;;77.05;69.03;;;;;;;;;;4095087;28;20404;-61
2024/01/15 11:54:10;;;;;;;68.97;62.30;;;;;;;;;;4097657;29;20078;-61